createdAt,value
2019-06-26T00:00:02.088Z,21.69
2019-06-26T00:02:32.670Z,21.67
2019-06-26T00:05:03.220Z,21.59
2019-06-26T00:07:33.804Z,21.54
2019-06-26T00:10:04.345Z,21.46
2019-06-26T00:12:34.911Z,21.38
2019-06-26T00:15:05.746Z,21.39
2019-06-26T00:17:36.310Z,21.36
2019-06-26T00:20:07.203Z,21.37
2019-06-26T00:22:37.837Z,21.40
2019-06-26T00:25:08.951Z,21.42
2019-06-26T00:27:39.537Z,21.38
2019-06-26T00:30:10.530Z,21.39
2019-06-26T00:32:41.084Z,21.39
2019-06-26T00:35:11.644Z,21.37
2019-06-26T00:37:42.190Z,21.37
2019-06-26T00:40:12.775Z,21.37
2019-06-26T00:42:43.281Z,21.32
2019-06-26T00:45:14.161Z,21.29
2019-06-26T00:47:44.667Z,21.26
2019-06-26T00:50:16.612Z,21.22
2019-06-26T00:52:47.217Z,21.22
2019-06-26T00:55:17.777Z,21.24
2019-06-26T00:57:48.279Z,21.23
2019-06-26T01:00:19.224Z,21.22
2019-06-26T01:02:49.810Z,21.18
2019-06-26T01:05:20.290Z,21.14
2019-06-26T01:07:50.868Z,21.05
2019-06-26T01:10:22.723Z,21.01
2019-06-26T01:12:53.262Z,20.98
2019-06-26T01:15:23.838Z,20.93
2019-06-26T01:17:54.341Z,20.90
2019-06-26T01:20:24.862Z,20.84
2019-06-26T01:22:55.395Z,20.84
2019-06-26T01:25:25.955Z,20.88
2019-06-26T01:27:56.462Z,20.91
2019-06-26T01:30:27.097Z,20.87
2019-06-26T01:32:57.611Z,20.90
2019-06-26T01:35:28.208Z,20.87
2019-06-26T01:37:58.797Z,20.91
2019-06-26T01:40:29.290Z,20.90
2019-06-26T01:42:59.856Z,20.93
2019-06-26T01:45:30.494Z,20.92
2019-06-26T01:48:00.992Z,20.93
2019-06-26T01:50:31.515Z,20.89
2019-06-26T01:53:02.075Z,20.88
2019-06-26T01:55:32.606Z,20.84
2019-06-26T01:58:03.146Z,20.78
2019-06-26T02:00:33.702Z,20.79
2019-06-26T02:03:04.249Z,20.78
2019-06-26T02:05:34.769Z,20.82
2019-06-26T02:08:05.278Z,20.80
2019-06-26T02:10:35.817Z,20.82
2019-06-26T02:13:06.313Z,20.84
2019-06-26T02:15:36.898Z,20.82
2019-06-26T02:18:09.030Z,20.82
2019-06-26T02:20:39.573Z,20.80
2019-06-26T02:23:10.216Z,20.83
2019-06-26T02:25:40.707Z,20.83
2019-06-26T02:28:11.216Z,20.81
2019-06-26T02:30:41.773Z,20.72
2019-06-26T02:33:12.266Z,20.68
2019-06-26T02:35:42.752Z,20.66
2019-06-26T02:38:13.324Z,20.64
2019-06-26T02:40:43.832Z,20.58
2019-06-26T02:43:14.297Z,20.51
2019-06-26T02:45:44.878Z,20.53
2019-06-26T02:48:15.313Z,20.44
2019-06-26T02:50:45.798Z,20.41
2019-06-26T02:53:16.329Z,20.39
2019-06-26T02:55:46.894Z,20.41
2019-06-26T02:58:17.398Z,20.40
2019-06-26T03:00:47.935Z,20.37
2019-06-26T03:03:18.486Z,20.32
2019-06-26T03:05:49.074Z,20.33
2019-06-26T03:08:19.642Z,20.33
2019-06-26T03:10:50.206Z,20.32
2019-06-26T03:13:20.765Z,20.31
2019-06-26T03:15:51.334Z,20.28
2019-06-26T03:18:22.728Z,20.29
2019-06-26T03:20:56.723Z,20.31
2019-06-26T03:23:27.421Z,20.36
2019-06-26T03:25:58.064Z,20.42
2019-06-26T03:28:28.580Z,20.47
2019-06-26T03:30:59.074Z,20.52
2019-06-26T03:33:29.527Z,20.55
2019-06-26T03:36:00.036Z,20.53
2019-06-26T03:38:30.648Z,20.53
2019-06-26T03:41:01.166Z,20.55
2019-06-26T03:43:35.339Z,20.59
2019-06-26T03:46:04.317Z,20.62
2019-06-26T03:48:35.478Z,20.71
2019-06-26T03:51:06.007Z,20.83
2019-06-26T03:53:36.523Z,20.89
2019-06-26T03:56:07.050Z,20.94
2019-06-26T03:58:37.542Z,21.03
2019-06-26T04:01:08.794Z,21.12
2019-06-26T04:03:39.496Z,21.18
2019-06-26T04:06:10.195Z,21.18
2019-06-26T04:08:40.715Z,21.28
2019-06-26T04:11:11.341Z,21.30
2019-06-26T04:13:41.875Z,21.39
2019-06-26T04:16:12.396Z,21.43
2019-06-26T04:18:42.971Z,21.50
2019-06-26T04:21:13.625Z,21.59
2019-06-26T04:23:44.135Z,21.65
2019-06-26T04:26:14.657Z,21.73
2019-06-26T04:28:45.263Z,21.84
2019-06-26T04:31:15.782Z,21.90
2019-06-26T04:33:46.265Z,21.96
2019-06-26T04:36:16.837Z,22.10
2019-06-26T04:38:47.348Z,22.20
2019-06-26T04:41:17.853Z,22.30
2019-06-26T04:43:48.486Z,22.38
2019-06-26T04:46:19.087Z,22.47
2019-06-26T04:48:49.606Z,22.55
2019-06-26T04:51:20.148Z,22.63
2019-06-26T04:53:50.616Z,22.71
2019-06-26T04:56:21.115Z,22.77
2019-06-26T04:58:52.090Z,22.85
2019-06-26T05:01:22.807Z,22.97
2019-06-26T05:03:53.369Z,23.12
2019-06-26T05:06:23.927Z,23.23
2019-06-26T05:08:54.438Z,23.40
2019-06-26T05:11:24.961Z,23.53
2019-06-26T05:13:55.506Z,23.78
2019-06-26T05:16:26.049Z,23.94
2019-06-26T05:18:56.553Z,24.08
2019-06-26T05:21:27.101Z,24.15
2019-06-26T05:23:57.512Z,24.23
2019-06-26T05:26:28.013Z,24.36
2019-06-26T05:28:58.555Z,24.42
2019-06-26T05:31:29.138Z,24.53
2019-06-26T05:33:59.641Z,24.69
2019-06-26T05:36:30.201Z,24.76
2019-06-26T05:39:00.716Z,24.83
2019-06-26T05:41:31.249Z,24.97
2019-06-26T05:44:02.031Z,25.07
2019-06-26T05:46:32.627Z,25.20
2019-06-26T05:49:03.198Z,25.29
2019-06-26T05:51:33.802Z,25.33
2019-06-26T05:54:04.476Z,25.43
2019-06-26T05:56:35.006Z,25.47
2019-06-26T05:59:05.710Z,25.49
2019-06-26T06:01:36.224Z,25.46
2019-06-26T06:04:06.768Z,25.39
2019-06-26T06:06:41.848Z,25.39
2019-06-26T06:09:09.716Z,25.38
2019-06-26T06:11:40.343Z,25.42
2019-06-26T06:14:10.886Z,25.46
2019-06-26T06:16:47.193Z,25.49
2019-06-26T06:19:13.652Z,25.54
2019-06-26T06:21:44.146Z,25.66
2019-06-26T06:24:14.637Z,25.69
2019-06-26T06:26:45.133Z,25.82
2019-06-26T06:29:15.669Z,25.84
2019-06-26T06:31:46.157Z,25.82
2019-06-26T06:34:16.667Z,25.85
2019-06-26T06:36:47.204Z,25.92
2019-06-26T06:39:17.711Z,26.07
2019-06-26T06:41:48.175Z,26.04
2019-06-26T06:44:18.715Z,25.84
2019-06-26T06:47:02.687Z,25.95
2019-06-26T06:49:21.402Z,25.92
2019-06-26T06:51:51.938Z,25.94
2019-06-26T06:54:22.506Z,25.93
2019-06-26T06:56:53.045Z,25.97
2019-06-26T06:59:23.575Z,26.02
2019-06-26T07:01:54.086Z,26.14
2019-06-26T07:04:24.672Z,26.29
2019-06-26T07:06:58.647Z,26.27
2019-06-26T07:09:27.713Z,26.29
2019-06-26T07:11:58.284Z,26.28
2019-06-26T07:14:28.839Z,26.27
2019-06-26T07:17:01.562Z,26.30
2019-06-26T07:19:31.799Z,26.39
2019-06-26T07:22:02.479Z,26.45
2019-06-26T07:24:33.050Z,26.47
2019-06-26T07:27:03.639Z,26.55
2019-06-26T07:29:34.296Z,26.62
2019-06-26T07:32:04.834Z,26.63
2019-06-26T07:34:35.502Z,26.66
2019-06-26T07:37:06.183Z,26.70
2019-06-26T07:39:36.787Z,26.69
2019-06-26T07:42:07.357Z,26.69
2019-06-26T07:44:38.003Z,26.76
2019-06-26T07:47:22.483Z,26.80
2019-06-26T07:49:40.978Z,26.93
2019-06-26T07:52:11.625Z,26.94
2019-06-26T07:54:42.215Z,26.91
2019-06-26T07:57:12.748Z,26.98
2019-06-26T07:59:43.231Z,27.00
2019-06-26T08:02:13.812Z,27.01
2019-06-26T08:04:44.435Z,26.96
2019-06-26T08:07:16.581Z,27.10
2019-06-26T08:09:47.212Z,27.03
2019-06-26T08:12:17.759Z,27.11
2019-06-26T08:14:48.349Z,27.11
2019-06-26T08:17:18.848Z,27.09
2019-06-26T08:19:49.374Z,27.17
2019-06-26T08:22:19.822Z,27.11
2019-06-26T08:24:50.488Z,26.97
2019-06-26T08:27:20.992Z,26.97
2019-06-26T08:29:51.534Z,26.98
2019-06-26T08:32:25.756Z,27.03
2019-06-26T08:34:54.292Z,27.13
2019-06-26T08:37:24.903Z,27.17
2019-06-26T08:39:55.467Z,27.24
2019-06-26T08:42:26.018Z,27.22
2019-06-26T08:44:58.436Z,27.33
2019-06-26T08:47:28.923Z,27.37
2019-06-26T08:49:59.418Z,27.34
2019-06-26T08:52:29.967Z,27.40
2019-06-26T08:55:00.460Z,27.56
2019-06-26T08:57:30.954Z,27.63
2019-06-26T09:00:01.571Z,27.56
2019-06-26T09:02:32.005Z,27.47
2019-06-26T09:05:02.511Z,27.60
2019-06-26T09:07:33.098Z,27.49
2019-06-26T09:10:03.857Z,27.56
2019-06-26T09:12:34.397Z,27.50
2019-06-26T09:15:04.975Z,27.47
2019-06-26T09:17:35.627Z,27.51
2019-06-26T09:20:07.167Z,27.44
2019-06-26T09:22:37.689Z,27.32
2019-06-26T09:25:20.699Z,27.32
2019-06-26T09:27:40.967Z,27.45
2019-06-26T09:30:11.887Z,27.46
2019-06-26T09:32:42.386Z,27.50
2019-06-26T09:35:12.945Z,27.38
2019-06-26T09:37:43.433Z,27.23
2019-06-26T09:40:14.325Z,27.23
2019-06-26T09:42:44.896Z,27.22
2019-06-26T09:45:15.736Z,27.15
2019-06-26T09:47:46.225Z,27.27
2019-06-26T09:50:17.662Z,27.31
2019-06-26T09:52:48.145Z,27.03
2019-06-26T09:55:19.245Z,26.94
2019-06-26T09:57:49.772Z,26.83
2019-06-26T10:00:22.407Z,26.86
2019-06-26T10:02:52.890Z,26.86
2019-06-26T10:05:23.429Z,26.92
2019-06-26T10:07:54.064Z,26.79
2019-06-26T10:10:24.643Z,26.93
2019-06-26T10:12:56.050Z,26.72
2019-06-26T10:15:26.791Z,26.76
2019-06-26T10:17:57.316Z,26.74
2019-06-26T10:20:27.838Z,26.84
2019-06-26T10:22:58.391Z,26.83
2019-06-26T10:25:28.852Z,26.92
2019-06-26T10:27:59.340Z,26.67
2019-06-26T10:30:29.894Z,26.62
2019-06-26T10:33:00.397Z,26.54
2019-06-26T10:35:30.996Z,26.46
2019-06-26T10:38:01.709Z,26.30
2019-06-26T10:40:32.298Z,26.41
2019-06-26T10:43:02.874Z,26.54
2019-06-26T10:45:36.020Z,26.87
2019-06-26T10:48:05.975Z,26.97
2019-06-26T10:50:47.971Z,26.93
2019-06-26T10:53:08.813Z,26.65
2019-06-26T10:55:39.359Z,26.73
2019-06-26T10:58:09.843Z,26.81
2019-06-26T11:00:40.379Z,26.83
2019-06-26T11:03:10.875Z,26.95
2019-06-26T11:05:42.997Z,27.11
2019-06-26T11:08:13.697Z,26.97
2019-06-26T11:10:44.425Z,26.65
2019-06-26T11:13:14.968Z,26.37
2019-06-26T11:15:45.503Z,26.49
2019-06-26T11:18:16.007Z,26.59
2019-06-26T11:20:46.486Z,26.42
2019-06-26T11:23:16.995Z,26.54
2019-06-26T11:25:47.459Z,26.37
2019-06-26T11:28:18.050Z,26.44
2019-06-26T11:30:48.561Z,26.53
2019-06-26T11:33:19.060Z,26.48
2019-06-26T11:35:49.518Z,26.46
2019-06-26T11:38:20.030Z,26.56
2019-06-26T11:40:50.529Z,26.56
2019-06-26T11:43:21.095Z,26.75
2019-06-26T11:45:51.691Z,26.82
2019-06-26T11:48:22.215Z,26.91
2019-06-26T11:50:52.787Z,26.82
2019-06-26T11:53:23.310Z,27.06
2019-06-26T11:55:53.808Z,27.27
2019-06-26T11:58:24.324Z,27.08
2019-06-26T12:00:55.096Z,26.95
2019-06-26T12:03:25.581Z,26.62
2019-06-26T12:06:12.009Z,26.68
2019-06-26T12:08:28.413Z,26.65
2019-06-26T12:10:58.864Z,26.78
2019-06-26T12:13:29.420Z,27.05
2019-06-26T12:15:59.994Z,26.76
2019-06-26T12:18:30.495Z,26.79
2019-06-26T12:21:01.011Z,27.07
2019-06-26T12:23:31.521Z,26.99
2019-06-26T12:26:02.110Z,27.28
2019-06-26T12:28:32.606Z,27.89
2019-06-26T12:31:03.161Z,28.10
2019-06-26T12:33:33.710Z,28.19
2019-06-26T12:36:04.662Z,28.91
2019-06-26T12:38:35.207Z,29.48
2019-06-26T12:41:05.873Z,29.49
2019-06-26T12:43:36.401Z,29.67
2019-06-26T12:46:06.965Z,29.30
2019-06-26T12:48:37.502Z,29.95
2019-06-26T12:51:08.030Z,29.62
2019-06-26T12:53:38.959Z,29.94
2019-06-26T12:56:09.501Z,29.83
2019-06-26T12:58:40.020Z,29.00
2019-06-26T13:01:10.630Z,29.18
2019-06-26T13:03:41.113Z,28.88
2019-06-26T13:06:11.675Z,30.13
2019-06-26T13:08:42.195Z,29.89
2019-06-26T13:11:12.712Z,30.15
2019-06-26T13:13:43.166Z,28.90
2019-06-26T13:16:21.201Z,29.69
2019-06-26T13:18:51.767Z,29.29
2019-06-26T13:21:23.187Z,29.54
2019-06-26T13:23:56.394Z,31.00
2019-06-26T13:26:26.922Z,30.35
2019-06-26T13:28:57.421Z,29.26
2019-06-26T13:31:27.971Z,29.42
2019-06-26T13:33:58.397Z,28.84
2019-06-26T13:36:28.849Z,29.25
2019-06-26T13:38:58.315Z,27.81
2019-06-26T13:41:27.883Z,27.41
2019-06-26T13:43:59.940Z,27.94
2019-06-26T13:46:28.644Z,28.58
2019-06-26T13:48:58.249Z,29.62
2019-06-26T13:51:27.706Z,29.23
2019-06-26T13:53:57.339Z,29.61
2019-06-26T13:56:26.790Z,30.01
2019-06-26T13:58:56.304Z,29.85
2019-06-26T14:01:26.264Z,31.36
2019-06-26T14:03:55.772Z,29.78
2019-06-26T14:06:26.277Z,29.35
2019-06-26T14:08:57.180Z,28.71
2019-06-26T14:11:27.655Z,28.93
2019-06-26T14:13:58.137Z,28.87
2019-06-26T14:16:29.886Z,28.84
2019-06-26T14:19:00.713Z,29.81
2019-06-26T14:21:30.562Z,28.48
2019-06-26T14:24:00.273Z,28.23
2019-06-26T14:26:29.805Z,28.71
2019-06-26T14:28:59.267Z,28.76
2019-06-26T14:31:28.797Z,28.54
2019-06-26T14:33:58.492Z,28.75
2019-06-26T14:36:28.006Z,27.96
2019-06-26T14:38:57.569Z,28.02
2019-06-26T14:41:27.053Z,28.18
2019-06-26T14:43:56.530Z,28.09
2019-06-26T14:46:26.014Z,28.83
2019-06-26T14:48:55.590Z,28.90
2019-06-26T14:51:40.933Z,28.69
2019-06-26T14:53:56.311Z,28.11
2019-06-26T14:56:25.924Z,29.20
2019-06-26T14:58:55.408Z,27.90
2019-06-26T15:01:24.872Z,28.19
2019-06-26T15:03:54.334Z,28.26
2019-06-26T15:06:23.878Z,28.06
2019-06-26T15:08:53.471Z,28.18
2019-06-26T15:11:22.919Z,28.59
2019-06-26T15:13:52.383Z,29.06
2019-06-26T15:16:21.870Z,28.91
2019-06-26T15:18:51.380Z,29.01
2019-06-26T15:21:20.835Z,28.18
2019-06-26T15:23:50.312Z,27.84
2019-06-26T15:26:19.799Z,27.49
2019-06-26T15:28:49.333Z,27.36
2019-06-26T15:31:19.063Z,27.21
2019-06-26T15:33:48.945Z,27.39
2019-06-26T15:36:18.459Z,27.88
2019-06-26T15:38:47.956Z,27.69
2019-06-26T15:41:20.711Z,28.37
2019-06-26T15:43:50.446Z,27.57
2019-06-26T15:46:19.994Z,27.87
2019-06-26T15:48:50.477Z,28.25
2019-06-26T15:51:20.350Z,27.41
2019-06-26T15:53:50.070Z,26.79
2019-06-26T15:56:19.718Z,26.76
2019-06-26T15:58:49.247Z,27.05
2019-06-26T16:01:18.756Z,26.67
2019-06-26T16:03:48.234Z,27.59
2019-06-26T16:06:17.729Z,27.39
2019-06-26T16:08:47.233Z,26.68
2019-06-26T16:11:16.816Z,26.07
2019-06-26T16:13:46.270Z,26.62
2019-06-26T16:16:15.980Z,26.26
2019-06-26T16:18:50.297Z,26.79
2019-06-26T16:21:19.928Z,26.68
2019-06-26T16:23:49.331Z,26.51
2019-06-26T16:26:18.833Z,26.27
2019-06-26T16:28:48.440Z,26.61
2019-06-26T16:31:17.969Z,26.06
2019-06-26T16:33:47.482Z,26.80
2019-06-26T16:36:16.984Z,26.92
2019-06-26T16:38:46.590Z,26.79
2019-06-26T16:41:16.142Z,26.29
2019-06-26T16:43:45.760Z,26.10
2019-06-26T16:46:15.274Z,25.92
2019-06-26T16:48:45.100Z,25.13
2019-06-26T16:51:14.651Z,24.96
2019-06-26T16:53:46.090Z,24.89
2019-06-26T16:56:21.248Z,24.37
2019-06-26T16:58:50.773Z,24.52
2019-06-26T17:01:20.615Z,24.73
2019-06-26T17:03:50.331Z,24.18
2019-06-26T17:06:19.957Z,23.78
2019-06-26T17:08:49.661Z,23.77
2019-06-26T17:11:19.322Z,23.09
2019-06-26T17:13:49.194Z,22.92
2019-06-26T17:16:18.898Z,23.00
2019-06-26T17:18:48.712Z,23.12
2019-06-26T17:21:18.681Z,22.52
2019-06-26T17:23:48.364Z,22.29
2019-06-26T17:26:18.042Z,22.02
2019-06-26T17:28:47.812Z,21.86
2019-06-26T17:31:17.470Z,21.60
2019-06-26T17:33:46.987Z,21.39
2019-06-26T17:36:16.995Z,21.59
2019-06-26T17:38:46.607Z,21.35
2019-06-26T17:41:16.224Z,21.24
2019-06-26T17:43:45.856Z,21.13
2019-06-26T17:46:15.346Z,20.79
2019-06-26T17:48:44.893Z,20.69
2019-06-26T17:51:14.430Z,20.57
2019-06-26T17:53:43.902Z,20.57
2019-06-26T17:56:13.383Z,20.38
2019-06-26T17:58:42.887Z,20.54
2019-06-26T18:01:12.367Z,20.48
2019-06-26T18:03:41.807Z,20.44
2019-06-26T18:06:11.382Z,20.44
2019-06-26T18:08:41.068Z,20.20
2019-06-26T18:11:10.419Z,20.29
2019-06-26T18:13:40.012Z,20.57
2019-06-26T18:16:09.533Z,20.75
2019-06-26T18:18:39.070Z,20.57
2019-06-26T18:21:08.966Z,19.72
2019-06-26T18:23:38.783Z,20.00
2019-06-26T18:26:13.364Z,20.31
2019-06-26T18:28:39.668Z,19.97
2019-06-26T18:31:09.096Z,19.59
2019-06-26T18:33:38.588Z,19.41
2019-06-26T18:36:08.108Z,19.31
2019-06-26T18:38:37.638Z,19.34
2019-06-26T18:41:07.218Z,19.22
2019-06-26T18:43:36.739Z,19.10
2019-06-26T18:46:06.241Z,18.97
2019-06-26T18:48:35.748Z,18.89
2019-06-26T18:51:05.256Z,18.70
2019-06-26T18:53:34.741Z,18.67
2019-06-26T18:56:04.214Z,18.50
2019-06-26T18:58:33.794Z,18.54
2019-06-26T19:01:03.331Z,18.70
2019-06-26T19:03:33.130Z,18.47
2019-06-26T19:06:02.619Z,18.50
2019-06-26T19:08:32.091Z,18.41
2019-06-26T19:11:01.634Z,18.48
2019-06-26T19:13:31.172Z,18.56
2019-06-26T19:16:04.350Z,18.57
2019-06-26T19:18:31.922Z,18.48
2019-06-26T19:21:01.479Z,18.46
2019-06-26T19:23:30.973Z,18.29
2019-06-26T19:26:00.473Z,18.31
2019-06-26T19:28:29.974Z,18.17
2019-06-26T19:30:59.488Z,18.33
2019-06-26T19:33:31.846Z,18.35
2019-06-26T19:36:01.329Z,18.45
2019-06-26T19:38:30.896Z,18.34
2019-06-26T19:41:00.381Z,18.29
2019-06-26T19:43:29.852Z,18.20
2019-06-26T19:45:59.325Z,18.28
2019-06-26T19:48:28.820Z,18.12
2019-06-26T19:50:58.365Z,18.18
2019-06-26T19:53:27.825Z,18.01
2019-06-26T19:55:57.339Z,17.97
2019-06-26T19:58:26.863Z,17.98
2019-06-26T20:00:56.370Z,17.96
2019-06-26T20:03:25.846Z,17.96
2019-06-26T20:05:55.355Z,18.06
2019-06-26T20:08:24.860Z,17.90
2019-06-26T20:10:54.396Z,17.73
2019-06-26T20:13:23.929Z,17.76
2019-06-26T20:15:53.372Z,17.79
2019-06-26T20:18:22.796Z,17.64
2019-06-26T20:20:52.560Z,17.70
2019-06-26T20:23:22.059Z,17.65
2019-06-26T20:25:51.604Z,17.60
2019-06-26T20:28:21.186Z,17.60
2019-06-26T20:30:50.776Z,17.48
2019-06-26T20:33:20.300Z,17.53
2019-06-26T20:35:50.196Z,17.53
2019-06-26T20:38:19.867Z,17.42
2019-06-26T20:40:49.393Z,17.52
2019-06-26T20:43:19.213Z,17.47
2019-06-26T20:45:49.013Z,17.44
2019-06-26T20:48:18.509Z,17.49
2019-06-26T20:50:48.148Z,17.39
2019-06-26T20:53:22.024Z,17.36
2019-06-26T20:55:52.656Z,17.22
2019-06-26T20:58:23.261Z,17.09
2019-06-26T21:00:53.993Z,16.99
2019-06-26T21:03:24.593Z,17.00
2019-06-26T21:05:58.270Z,17.02
2019-06-26T21:08:29.650Z,17.20
2019-06-26T21:11:00.429Z,17.02
2019-06-26T21:13:33.659Z,17.10
2019-06-26T21:16:05.441Z,16.93
2019-06-26T21:18:35.957Z,17.01
2019-06-26T21:21:06.455Z,16.90
2019-06-26T21:23:37.062Z,16.76
2019-06-26T21:26:07.617Z,16.80
2019-06-26T21:28:37.966Z,16.83
2019-06-26T21:31:08.535Z,16.64
2019-06-26T21:33:39.066Z,16.57
2019-06-26T21:36:09.465Z,16.50
2019-06-26T21:38:40.009Z,16.46
2019-06-26T21:41:10.520Z,16.42
2019-06-26T21:43:41.003Z,16.30
2019-06-26T21:46:11.508Z,16.37
2019-06-26T21:48:42.017Z,16.44
2019-06-26T21:51:12.514Z,16.38
2019-06-26T21:53:43.021Z,16.38
2019-06-26T21:56:13.514Z,16.39
2019-06-26T21:58:44.007Z,16.45
2019-06-26T22:01:14.578Z,16.21
2019-06-26T22:03:45.097Z,16.19
2019-06-26T22:06:15.730Z,16.24
2019-06-26T22:08:46.307Z,16.13
2019-06-26T22:11:16.892Z,16.15
2019-06-26T22:13:47.397Z,16.19
2019-06-26T22:16:17.954Z,16.24
2019-06-26T22:18:48.487Z,16.21
2019-06-26T22:21:18.999Z,16.28
2019-06-26T22:23:49.545Z,16.24
2019-06-26T22:26:20.050Z,16.16
2019-06-26T22:28:50.580Z,16.26
2019-06-26T22:31:21.135Z,16.08
2019-06-26T22:33:51.594Z,16.13
2019-06-26T22:36:22.108Z,16.08
2019-06-26T22:38:52.657Z,16.11
2019-06-26T22:41:23.226Z,16.25
2019-06-26T22:43:53.700Z,16.38
2019-06-26T22:46:24.218Z,16.31
2019-06-26T22:48:54.727Z,16.35
2019-06-26T22:51:25.455Z,16.33
2019-06-26T22:53:55.987Z,16.20
2019-06-26T22:56:26.694Z,16.18
2019-06-26T22:58:57.159Z,16.16
2019-06-26T23:01:27.682Z,15.94
2019-06-26T23:03:58.169Z,15.77
2019-06-26T23:06:28.607Z,15.81
2019-06-26T23:08:59.176Z,15.58
2019-06-26T23:11:29.693Z,15.53
2019-06-26T23:14:00.197Z,15.52
2019-06-26T23:16:30.686Z,15.61
2019-06-26T23:19:01.347Z,15.68
2019-06-26T23:21:31.860Z,15.60
2019-06-26T23:24:02.395Z,15.57
2019-06-26T23:26:32.922Z,15.61
2019-06-26T23:29:03.435Z,15.69
2019-06-26T23:31:33.983Z,15.63
2019-06-26T23:34:04.524Z,15.64
2019-06-26T23:36:35.063Z,15.62
2019-06-26T23:39:06.290Z,15.38
2019-06-26T23:41:36.789Z,15.38
2019-06-26T23:44:07.254Z,15.39
2019-06-26T23:46:37.819Z,15.04
2019-06-26T23:49:08.392Z,15.04
2019-06-26T23:51:38.923Z,15.03
2019-06-26T23:54:09.506Z,14.88
2019-06-26T23:56:41.025Z,14.86
2019-06-26T23:59:11.566Z,14.77
